createdAt,value
2018-08-03T00:02:10.483Z,66.40
2018-08-03T00:04:39.971Z,66.50
2018-08-03T00:07:09.226Z,66.20
2018-08-03T00:09:38.729Z,66.40
2018-08-03T00:12:08.325Z,67.10
2018-08-03T00:14:38.183Z,66.80
2018-08-03T00:17:07.645Z,66.90
2018-08-03T00:19:37.430Z,66.40
2018-08-03T00:22:06.570Z,67.00
2018-08-03T00:24:36.414Z,67.60
2018-08-03T00:27:05.286Z,67.80
2018-08-03T00:29:34.791Z,67.30
2018-08-03T00:32:04.266Z,67.90
2018-08-03T00:34:33.822Z,68.00
2018-08-03T00:37:03.307Z,67.90
2018-08-03T00:39:32.801Z,67.80
2018-08-03T00:42:02.327Z,67.70
2018-08-03T00:44:32.157Z,68.00
2018-08-03T00:47:01.691Z,67.80
2018-08-03T00:49:31.314Z,67.90
2018-08-03T00:52:00.768Z,68.50
2018-08-03T00:54:30.318Z,68.10
2018-08-03T00:56:59.807Z,68.70
2018-08-03T00:59:29.639Z,68.80
2018-08-03T01:04:28.019Z,69.20
2018-08-03T01:06:58.553Z,70.10
2018-08-03T01:09:28.632Z,70.20
2018-08-03T01:11:58.303Z,69.60
2018-08-03T01:14:27.861Z,70.30
2018-08-03T01:16:57.382Z,70.40
2018-08-03T01:19:27.080Z,70.20
2018-08-03T01:21:57.081Z,70.00
2018-08-03T01:24:26.295Z,70.30
2018-08-03T01:26:56.031Z,70.50
2018-08-03T01:29:25.526Z,70.70
2018-08-03T01:31:55.207Z,71.40
2018-08-03T01:34:25.170Z,71.80
2018-08-03T01:36:55.106Z,72.10
2018-08-03T01:39:24.991Z,72.50
2018-08-03T01:41:53.951Z,71.90
2018-08-03T01:44:23.555Z,72.20
2018-08-03T01:46:52.899Z,71.80
2018-08-03T01:49:22.353Z,71.70
2018-08-03T01:51:52.119Z,71.80
2018-08-03T01:54:21.755Z,72.10
2018-08-03T01:59:20.311Z,72.30
2018-08-03T02:01:49.928Z,72.10
2018-08-03T02:04:19.224Z,72.10
2018-08-03T02:06:49.174Z,72.70
2018-08-03T02:09:18.511Z,72.60
2018-08-03T02:11:47.717Z,73.10
2018-08-03T02:14:17.616Z,71.90
2018-08-03T02:16:47.240Z,72.80
2018-08-03T02:19:17.295Z,72.80
2018-08-03T02:21:47.016Z,72.70
2018-08-03T02:24:17.045Z,72.50
2018-08-03T02:26:46.495Z,72.90
2018-08-03T02:29:16.085Z,71.60
2018-08-03T02:31:45.456Z,72.10
2018-08-03T02:34:15.010Z,71.70
2018-08-03T02:36:44.579Z,72.10
2018-08-03T02:39:14.822Z,71.90
2018-08-03T02:41:44.584Z,71.60
2018-08-03T02:44:14.078Z,71.80
2018-08-03T02:46:43.546Z,71.90
2018-08-03T02:49:13.354Z,71.40
2018-08-03T02:51:43.995Z,71.30
2018-08-03T02:54:13.766Z,71.50
2018-08-03T02:56:43.016Z,71.70
2018-08-03T02:59:12.462Z,72.40
2018-08-03T03:01:41.567Z,72.60
2018-08-03T03:04:10.892Z,72.40
2018-08-03T03:06:40.324Z,72.10
2018-08-03T03:09:11.333Z,72.20
2018-08-03T03:11:40.799Z,72.00
2018-08-03T03:14:10.347Z,72.50
2018-08-03T03:16:39.902Z,80.50
2018-08-03T03:19:09.368Z,82.10
2018-08-03T03:21:38.860Z,94.10
2018-08-03T03:24:08.358Z,99.90
2018-08-03T03:26:37.941Z,99.90
2018-08-03T03:29:07.053Z,99.90
2018-08-03T03:31:36.902Z,99.90
2018-08-03T03:34:06.048Z,99.90
2018-08-03T03:36:35.574Z,99.90
2018-08-03T03:39:08.538Z,99.90
2018-08-03T03:41:38.029Z,99.90
2018-08-03T03:44:07.994Z,99.90
2018-08-03T03:46:37.759Z,99.90
2018-08-03T03:49:07.272Z,99.90
2018-08-03T03:51:36.763Z,99.90
2018-08-03T03:54:06.226Z,99.90
2018-08-03T03:56:35.753Z,99.90
2018-08-03T03:59:04.896Z,99.90
2018-08-03T04:01:34.390Z,99.90
2018-08-03T04:04:03.852Z,99.90
2018-08-03T04:06:33.332Z,99.90
2018-08-03T04:09:02.871Z,99.90
2018-08-03T04:11:32.361Z,99.90
2018-08-03T04:14:01.602Z,99.90
2018-08-03T04:16:31.087Z,99.90
2018-08-03T04:19:00.956Z,99.90
2018-08-03T04:21:30.512Z,99.90
2018-08-03T04:23:59.676Z,99.90
2018-08-03T04:26:28.918Z,99.90
2018-08-03T04:28:59.050Z,99.90
2018-08-03T04:31:28.943Z,99.90
2018-08-03T04:33:59.154Z,99.90
2018-08-03T04:36:28.913Z,99.90
2018-08-03T04:38:58.770Z,99.90
2018-08-03T04:41:28.066Z,99.90
2018-08-03T04:43:57.197Z,99.90
2018-08-03T04:46:26.755Z,99.90
2018-08-03T04:48:56.567Z,99.90
2018-08-03T04:51:26.053Z,99.90
2018-08-03T04:53:55.868Z,99.90
2018-08-03T04:56:25.658Z,99.90
2018-08-03T04:58:55.499Z,99.90
2018-08-03T05:01:25.382Z,99.90
2018-08-03T05:03:54.440Z,99.90
2018-08-03T05:06:23.933Z,99.90
2018-08-03T05:08:53.422Z,99.90
2018-08-03T05:11:22.611Z,99.90
2018-08-03T05:13:52.152Z,99.90
2018-08-03T05:16:21.619Z,99.90
2018-08-03T05:18:50.797Z,99.90
2018-08-03T05:21:20.304Z,99.90
2018-08-03T05:23:49.803Z,99.90
2018-08-03T05:26:19.364Z,99.90
2018-08-03T05:28:49.132Z,99.90
2018-08-03T05:31:18.231Z,99.90
2018-08-03T05:33:47.634Z,99.90
2018-08-03T05:36:17.613Z,99.90
2018-08-03T05:38:47.623Z,99.90
2018-08-03T05:41:17.394Z,99.90
2018-08-03T05:43:46.854Z,99.90
2018-08-03T05:46:16.662Z,99.90
2018-08-03T05:48:46.478Z,99.90
2018-08-03T05:51:15.884Z,99.90
2018-08-03T05:53:45.661Z,99.90
2018-08-03T05:56:15.180Z,99.90
2018-08-03T05:58:44.711Z,99.90
2018-08-03T06:01:14.117Z,99.90
2018-08-03T06:03:43.330Z,99.90
2018-08-03T06:06:12.837Z,99.90
2018-08-03T06:08:42.684Z,99.90
2018-08-03T06:11:11.809Z,99.90
2018-08-03T06:13:41.596Z,99.90
2018-08-03T06:16:11.215Z,99.90
2018-08-03T06:18:40.361Z,99.90
2018-08-03T06:21:09.566Z,99.90
2018-08-03T06:23:38.863Z,99.90
2018-08-03T06:26:08.431Z,99.90
2018-08-03T06:28:37.920Z,99.90
2018-08-03T06:31:07.134Z,99.90
2018-08-03T06:33:36.665Z,99.90
2018-08-03T06:36:05.849Z,99.90
2018-08-03T06:38:35.723Z,99.90
2018-08-03T06:41:04.997Z,99.30
2018-08-03T06:43:34.518Z,99.90
2018-08-03T06:46:03.696Z,98.60
2018-08-03T06:48:32.973Z,99.10
2018-08-03T06:51:03.017Z,99.90
2018-08-03T06:53:32.486Z,99.60
2018-08-03T06:56:01.972Z,99.90
2018-08-03T06:58:31.114Z,94.20
2018-08-03T07:01:00.802Z,93.20
2018-08-03T07:03:30.511Z,90.80
2018-08-03T07:05:59.712Z,90.70
2018-08-03T07:08:29.263Z,91.10
2018-08-03T07:10:58.916Z,80.80
2018-08-03T07:13:28.702Z,79.50
2018-08-03T07:15:58.522Z,76.80
2018-08-03T07:18:27.632Z,78.70
2018-08-03T07:20:57.090Z,78.80
2018-08-03T07:23:26.798Z,75.30
2018-08-03T07:25:56.353Z,71.00
2018-08-03T07:28:26.339Z,69.90
2018-08-03T07:30:56.152Z,67.30
2018-08-03T07:33:25.934Z,66.90
2018-08-03T07:35:55.670Z,67.10
2018-08-03T07:38:25.184Z,62.10
2018-08-03T07:40:55.040Z,62.40
2018-08-03T07:43:24.239Z,62.60
2018-08-03T07:45:53.900Z,59.70
2018-08-03T07:48:23.333Z,57.70
2018-08-03T07:50:53.172Z,55.90
2018-08-03T07:53:22.384Z,56.70
2018-08-03T07:55:51.153Z,54.00
2018-08-03T07:58:20.618Z,54.80
2018-08-03T08:00:49.678Z,53.50
2018-08-03T08:03:18.831Z,53.50
2018-08-03T08:05:48.850Z,54.50
2018-08-03T08:08:18.286Z,53.40
2018-08-03T08:10:47.794Z,51.60
2018-08-03T08:13:17.253Z,50.30
2018-08-03T08:15:46.445Z,51.00
2018-08-03T08:18:16.163Z,49.10
2018-08-03T08:23:15.010Z,51.10
2018-08-03T08:25:44.827Z,47.90
2018-08-03T08:28:14.310Z,48.20
2018-08-03T08:33:12.797Z,46.90
2018-08-03T08:35:42.080Z,46.60
2018-08-03T08:38:11.875Z,46.90
2018-08-03T08:40:41.944Z,46.70
2018-08-03T08:43:11.476Z,46.70
2018-08-03T08:45:40.682Z,44.90
2018-08-03T08:48:10.660Z,43.20
2018-08-03T08:50:40.095Z,45.10
2018-08-03T08:53:09.772Z,42.20
2018-08-03T08:55:39.821Z,43.10
2018-08-03T08:58:09.338Z,42.50
2018-08-03T09:00:38.793Z,42.10
2018-08-03T09:03:08.780Z,41.50
2018-08-03T09:05:38.892Z,43.20
2018-08-03T09:08:08.519Z,42.40
2018-08-03T09:10:38.541Z,42.10
2018-08-03T09:13:08.057Z,41.50
2018-08-03T09:15:37.752Z,41.40
2018-08-03T09:18:06.962Z,41.50
2018-08-03T09:20:36.678Z,41.70
2018-08-03T09:23:05.949Z,41.40
2018-08-03T09:25:35.762Z,41.30
2018-08-03T09:28:05.287Z,41.00
2018-08-03T09:30:34.758Z,40.80
2018-08-03T09:33:04.167Z,39.60
2018-08-03T09:35:33.402Z,39.90
2018-08-03T09:38:02.500Z,38.80
2018-08-03T09:40:33.692Z,38.70
2018-08-03T09:43:03.720Z,38.30
2018-08-03T09:45:33.307Z,37.60
2018-08-03T09:48:03.282Z,37.50
2018-08-03T09:50:33.108Z,38.30
2018-08-03T09:53:02.986Z,37.50
2018-08-03T09:55:32.546Z,36.40
2018-08-03T09:58:01.605Z,36.90
2018-08-03T10:00:37.055Z,37.50
2018-08-03T10:03:06.555Z,36.90
2018-08-03T10:05:36.012Z,37.40
2018-08-03T10:08:05.637Z,35.90
2018-08-03T10:10:35.386Z,36.30
2018-08-03T10:13:05.581Z,35.60
2018-08-03T10:15:35.415Z,34.80
2018-08-03T10:18:05.347Z,34.60
2018-08-03T10:20:34.753Z,35.10
2018-08-03T10:23:04.925Z,34.20
2018-08-03T10:25:34.350Z,33.50
2018-08-03T10:28:04.209Z,32.80
2018-08-03T10:30:33.798Z,34.00
2018-08-03T10:33:03.321Z,34.40
2018-08-03T10:35:32.752Z,34.60
2018-08-03T10:38:02.190Z,34.00
2018-08-03T10:40:31.443Z,33.30
2018-08-03T10:43:00.990Z,32.70
2018-08-03T10:45:30.640Z,33.10
2018-08-03T10:48:00.429Z,32.70
2018-08-03T10:50:29.892Z,33.00
2018-08-03T10:52:59.138Z,33.10
2018-08-03T10:55:30.027Z,33.50
2018-08-03T10:57:59.361Z,33.30
2018-08-03T11:00:30.495Z,32.90
2018-08-03T11:03:00.304Z,32.00
2018-08-03T11:05:30.285Z,30.80
2018-08-03T11:07:59.336Z,31.90
2018-08-03T11:10:28.773Z,30.30
2018-08-03T11:12:58.404Z,31.20
2018-08-03T11:15:29.122Z,30.00
2018-08-03T11:17:58.638Z,30.00
2018-08-03T11:20:28.139Z,30.00
2018-08-03T11:22:57.980Z,30.30
2018-08-03T11:25:27.752Z,30.30
2018-08-03T11:27:57.555Z,30.20
2018-08-03T11:30:27.440Z,29.60
2018-08-03T11:32:57.548Z,30.00
2018-08-03T11:35:27.557Z,30.00
2018-08-03T11:37:57.457Z,30.20
2018-08-03T11:40:27.336Z,30.00
2018-08-03T11:42:56.623Z,30.80
2018-08-03T11:45:25.808Z,29.90
2018-08-03T11:47:54.873Z,29.00
2018-08-03T11:50:24.889Z,29.00
2018-08-03T11:52:54.366Z,28.80
2018-08-03T11:55:23.920Z,29.70
2018-08-03T11:57:53.800Z,30.00
2018-08-03T12:00:23.711Z,30.50
2018-08-03T12:02:53.480Z,31.10
2018-08-03T12:05:23.440Z,30.70
2018-08-03T12:07:53.507Z,30.30
2018-08-03T12:10:23.109Z,29.40
2018-08-03T12:12:53.297Z,29.50
2018-08-03T12:15:23.077Z,29.30
2018-08-03T12:17:52.597Z,30.10
2018-08-03T12:20:22.964Z,29.20
2018-08-03T12:22:53.121Z,29.50
2018-08-03T12:25:23.655Z,29.20
2018-08-03T12:27:53.821Z,29.10
2018-08-03T12:30:23.213Z,29.10
2018-08-03T12:32:52.326Z,29.30
2018-08-03T12:35:22.151Z,29.50
2018-08-03T12:37:52.239Z,28.40
2018-08-03T12:40:22.369Z,28.20
2018-08-03T12:42:52.768Z,27.90
2018-08-03T12:45:22.781Z,28.70
2018-08-03T12:47:52.769Z,28.30
2018-08-03T12:50:23.171Z,28.70
2018-08-03T12:52:53.226Z,27.80
2018-08-03T12:55:23.815Z,27.20
2018-08-03T12:57:54.194Z,27.30
2018-08-03T13:00:24.261Z,27.10
2018-08-03T13:02:54.356Z,26.70
2018-08-03T13:05:24.728Z,27.00
2018-08-03T13:07:54.438Z,27.60
2018-08-03T13:10:24.242Z,28.00
2018-08-03T13:12:54.719Z,27.60
2018-08-03T13:15:25.101Z,27.90
2018-08-03T13:17:54.579Z,28.00
2018-08-03T13:20:24.274Z,27.40
2018-08-03T13:22:57.709Z,28.10
2018-08-03T13:25:26.961Z,27.80
2018-08-03T13:27:56.056Z,27.50
2018-08-03T13:30:26.032Z,27.30
2018-08-03T13:32:56.057Z,27.20
2018-08-03T13:35:25.522Z,27.60
2018-08-03T13:37:55.896Z,27.50
2018-08-03T13:40:25.947Z,27.40
2018-08-03T13:42:55.388Z,27.60
2018-08-03T13:45:24.549Z,27.80
2018-08-03T13:47:54.615Z,27.90
2018-08-03T13:50:24.748Z,27.20
2018-08-03T13:52:54.362Z,27.80
2018-08-03T13:55:24.356Z,27.90
2018-08-03T13:57:53.954Z,27.30
2018-08-03T14:00:23.834Z,27.60
2018-08-03T14:02:53.879Z,26.80
2018-08-03T14:05:23.639Z,27.30
2018-08-03T14:07:53.994Z,27.70
2018-08-03T14:10:24.580Z,27.20
2018-08-03T14:12:54.082Z,26.90
2018-08-03T14:15:23.709Z,26.90
2018-08-03T14:17:54.212Z,26.40
2018-08-03T14:20:23.960Z,27.20
2018-08-03T14:22:53.656Z,27.70
2018-08-03T14:25:23.472Z,28.30
2018-08-03T14:27:53.126Z,28.70
2018-08-03T14:30:22.608Z,28.00
2018-08-03T14:32:51.810Z,28.40
2018-08-03T14:35:21.660Z,28.80
2018-08-03T14:37:51.459Z,30.00
2018-08-03T14:40:20.701Z,30.80
2018-08-03T14:42:50.450Z,32.20
2018-08-03T14:45:20.238Z,32.20
2018-08-03T14:47:49.080Z,32.60
2018-08-03T14:50:18.277Z,33.00
2018-08-03T14:52:47.702Z,33.90
2018-08-03T14:55:16.809Z,35.20
2018-08-03T14:57:46.275Z,35.20
2018-08-03T15:00:15.505Z,35.90
2018-08-03T15:02:44.340Z,35.70
2018-08-03T15:05:13.474Z,35.50
2018-08-03T15:07:43.355Z,35.90
2018-08-03T15:10:13.093Z,37.60
2018-08-03T15:12:42.597Z,37.20
2018-08-03T15:15:12.019Z,36.30
2018-08-03T15:17:41.550Z,36.70
2018-08-03T15:20:12.301Z,36.40
2018-08-03T15:22:41.755Z,36.70
2018-08-03T15:25:10.850Z,37.50
2018-08-03T15:27:40.767Z,38.30
2018-08-03T15:30:11.051Z,37.50
2018-08-03T15:32:40.337Z,38.40
2018-08-03T15:37:38.531Z,38.20
2018-08-03T15:40:08.080Z,38.40
2018-08-03T15:42:37.262Z,38.50
2018-08-03T15:45:07.712Z,38.60
2018-08-03T15:47:37.307Z,38.30
2018-08-03T15:50:06.720Z,38.10
2018-08-03T15:52:35.565Z,37.70
2018-08-03T15:55:05.545Z,39.40
2018-08-03T15:57:35.731Z,39.30
2018-08-03T16:00:07.239Z,38.80
2018-08-03T16:02:36.520Z,39.30
2018-08-03T16:05:06.589Z,38.30
2018-08-03T16:07:36.061Z,39.10
2018-08-03T16:10:05.546Z,40.00
2018-08-03T16:12:34.708Z,38.90
2018-08-03T16:15:04.178Z,38.80
2018-08-03T16:17:33.627Z,38.90
2018-08-03T16:20:02.804Z,39.10
2018-08-03T16:22:32.524Z,39.90
2018-08-03T16:25:02.347Z,39.90
2018-08-03T16:27:31.461Z,39.90
2018-08-03T16:30:00.871Z,40.70
2018-08-03T16:32:30.046Z,41.10
2018-08-03T16:34:59.514Z,41.10
2018-08-03T16:37:28.770Z,40.80
2018-08-03T16:39:58.224Z,41.40
2018-08-03T16:42:27.371Z,41.60
2018-08-03T16:44:57.109Z,41.70
2018-08-03T16:47:26.247Z,41.60
2018-08-03T16:49:55.413Z,41.00
2018-08-03T16:52:25.193Z,40.90
2018-08-03T16:54:54.285Z,40.70
2018-08-03T16:57:24.096Z,41.70
2018-08-03T16:59:53.987Z,41.40
2018-08-03T17:02:24.023Z,41.70
2018-08-03T17:04:53.330Z,41.30
2018-08-03T17:07:23.139Z,41.80
2018-08-03T17:09:52.666Z,42.00
2018-08-03T17:12:22.258Z,41.70
2018-08-03T17:14:52.123Z,41.70
2018-08-03T17:17:21.488Z,40.90
2018-08-03T17:19:51.289Z,41.90
2018-08-03T17:22:20.820Z,43.60
2018-08-03T17:24:50.241Z,43.50
2018-08-03T17:27:19.474Z,44.10
2018-08-03T17:29:49.344Z,41.70
2018-08-03T17:32:18.508Z,43.20
2018-08-03T17:34:48.002Z,43.30
2018-08-03T17:37:17.601Z,42.60
2018-08-03T17:39:47.448Z,44.10
2018-08-03T17:42:16.833Z,43.50
2018-08-03T17:44:46.290Z,44.70
2018-08-03T17:47:16.083Z,44.50
2018-08-03T17:49:45.911Z,43.60
2018-08-03T17:52:15.581Z,44.30
2018-08-03T17:54:45.171Z,44.40
2018-08-03T17:57:14.437Z,44.90
2018-08-03T17:59:44.410Z,43.80
2018-08-03T18:02:13.963Z,44.80
2018-08-03T18:04:43.362Z,44.80
2018-08-03T18:07:13.804Z,44.40
2018-08-03T18:09:43.620Z,43.70
2018-08-03T18:12:13.075Z,44.90
2018-08-03T18:14:42.898Z,45.20
2018-08-03T18:17:12.062Z,43.90
2018-08-03T18:19:41.490Z,45.10
2018-08-03T18:22:11.055Z,44.80
2018-08-03T18:24:40.498Z,44.30
2018-08-03T18:27:09.970Z,45.80
2018-08-03T18:29:39.609Z,45.80
2018-08-03T18:32:09.185Z,45.80
2018-08-03T18:34:38.683Z,45.90
2018-08-03T18:37:08.021Z,46.60
2018-08-03T18:39:38.344Z,46.20
2018-08-03T18:42:07.913Z,46.70
2018-08-03T18:44:37.486Z,45.80
2018-08-03T18:47:07.095Z,47.10
2018-08-03T18:49:36.926Z,46.90
2018-08-03T18:52:06.715Z,46.80
2018-08-03T18:54:36.713Z,47.10
2018-08-03T18:57:05.996Z,47.50
2018-08-03T18:59:35.179Z,47.30
2018-08-03T19:02:04.283Z,47.60
2018-08-03T19:04:33.776Z,47.40
2018-08-03T19:07:03.010Z,47.80
2018-08-03T19:09:32.798Z,47.30
2018-08-03T19:12:02.641Z,48.00
2018-08-03T19:14:32.397Z,47.80
2018-08-03T19:19:30.949Z,48.10
2018-08-03T19:22:00.780Z,48.20
2018-08-03T19:24:30.386Z,48.40
2018-08-03T19:26:59.855Z,48.20
2018-08-03T19:29:29.679Z,48.80
2018-08-03T19:31:59.670Z,48.80
2018-08-03T19:34:29.358Z,48.80
2018-08-03T19:36:58.863Z,49.00
2018-08-03T19:39:28.009Z,49.00
2018-08-03T19:41:57.220Z,49.30
2018-08-03T19:44:27.092Z,49.50
2018-08-03T19:46:56.345Z,49.50
2018-08-03T19:49:26.151Z,49.80
2018-08-03T19:51:55.658Z,49.80
2018-08-03T19:54:25.153Z,50.50
2018-08-03T19:56:54.945Z,50.30
2018-08-03T19:59:24.649Z,50.50
2018-08-03T20:01:55.291Z,50.50
2018-08-03T20:04:25.108Z,50.70
2018-08-03T20:06:54.712Z,50.80
2018-08-03T20:09:24.664Z,50.90
2018-08-03T20:11:54.163Z,51.00
2018-08-03T20:14:23.604Z,52.20
2018-08-03T20:16:53.082Z,52.50
2018-08-03T20:19:22.521Z,52.50
2018-08-03T20:21:52.105Z,52.00
2018-08-03T20:24:21.427Z,52.50
2018-08-03T20:26:50.544Z,52.40
2018-08-03T20:29:19.724Z,53.00
2018-08-03T20:31:49.166Z,53.00
2018-08-03T20:34:18.987Z,54.40
2018-08-03T20:36:48.192Z,54.10
2018-08-03T20:39:17.320Z,54.10
2018-08-03T20:41:46.676Z,54.40
2018-08-03T20:44:16.488Z,55.10
2018-08-03T20:46:45.662Z,54.70
2018-08-03T20:51:44.142Z,56.10
2018-08-03T20:54:13.633Z,56.00
2018-08-03T20:56:43.476Z,56.10
2018-08-03T20:59:12.872Z,56.60
2018-08-03T21:01:42.715Z,56.00
2018-08-03T21:04:12.460Z,55.50
2018-08-03T21:06:42.409Z,55.40
2018-08-03T21:09:13.231Z,55.80
2018-08-03T21:11:43.119Z,56.40
2018-08-03T21:14:12.975Z,56.80
2018-08-03T21:19:11.920Z,56.40
2018-08-03T21:21:41.691Z,56.10
2018-08-03T21:26:40.242Z,56.40
2018-08-03T21:29:10.014Z,56.70
2018-08-03T21:31:39.906Z,56.70
2018-08-03T21:34:09.777Z,56.80
2018-08-03T21:36:39.007Z,57.00
2018-08-03T21:39:10.598Z,57.10
2018-08-03T21:41:39.804Z,58.40
2018-08-03T21:44:08.998Z,59.90
2018-08-03T21:46:38.471Z,59.70
2018-08-03T21:49:07.904Z,59.50
2018-08-03T21:51:37.847Z,59.90
2018-08-03T21:54:07.395Z,60.50
2018-08-03T21:56:36.881Z,60.10
2018-08-03T21:59:06.045Z,60.20
2018-08-03T22:01:35.550Z,59.50
2018-08-03T22:04:04.771Z,59.20
2018-08-03T22:06:34.124Z,59.20
2018-08-03T22:09:04.373Z,59.60
2018-08-03T22:11:33.523Z,59.90
2018-08-03T22:14:03.036Z,59.90
2018-08-03T22:16:32.482Z,62.10
2018-08-03T22:21:31.526Z,60.80
2018-08-03T22:24:00.952Z,61.60
2018-08-03T22:26:29.916Z,61.90
2018-08-03T22:28:59.761Z,60.90
2018-08-03T22:31:28.612Z,60.60
2018-08-03T22:33:58.159Z,60.50
2018-08-03T22:36:27.983Z,60.30
2018-08-03T22:38:58.766Z,60.70
2018-08-03T22:41:28.563Z,60.90
2018-08-03T22:43:58.354Z,60.50
2018-08-03T22:46:28.186Z,61.00
2018-08-03T22:48:57.679Z,61.10
2018-08-03T22:51:27.523Z,60.90
2018-08-03T22:53:56.922Z,61.40
2018-08-03T22:56:26.284Z,61.50
2018-08-03T22:58:55.918Z,61.00
2018-08-03T23:01:25.061Z,61.10
2018-08-03T23:03:54.873Z,61.20
2018-08-03T23:06:24.925Z,61.80
2018-08-03T23:08:54.372Z,61.40
2018-08-03T23:11:23.892Z,62.10
2018-08-03T23:13:53.346Z,63.20
2018-08-03T23:16:22.986Z,61.70
2018-08-03T23:18:52.236Z,61.70
2018-08-03T23:21:21.923Z,62.00
2018-08-03T23:23:51.523Z,62.10
2018-08-03T23:26:21.115Z,62.20
2018-08-03T23:28:51.030Z,62.30
2018-08-03T23:31:20.855Z,62.50
2018-08-03T23:33:50.479Z,62.90
2018-08-03T23:36:19.805Z,63.20
2018-08-03T23:38:49.336Z,63.10
2018-08-03T23:41:18.753Z,63.10
2018-08-03T23:43:48.307Z,63.30
2018-08-03T23:46:18.247Z,63.50
2018-08-03T23:48:48.059Z,63.80
2018-08-03T23:51:17.558Z,63.80
2018-08-03T23:53:47.325Z,63.50
2018-08-03T23:56:17.142Z,63.90
2018-08-03T23:58:46.602Z,63.40
